createdAt,value
2022-11-06T00:00:11.533Z,96999.84
2022-11-06T00:02:39.571Z,97006.13
2022-11-06T00:05:25.950Z,97005.34
2022-11-06T00:07:53.914Z,97004.28
2022-11-06T00:10:22.142Z,97003.50
2022-11-06T00:12:50.114Z,96993.13
2022-11-06T00:15:19.649Z,96992.97
2022-11-06T00:17:50.231Z,96991.22
2022-11-06T00:20:18.467Z,96986.78
2022-11-06T00:22:46.361Z,96993.84
2022-11-06T00:25:14.285Z,96990.66
2022-11-06T00:27:43.317Z,96984.59
2022-11-06T00:30:12.594Z,96988.09
2022-11-06T00:32:41.894Z,96995.31
2022-11-06T00:35:09.945Z,96983.72
2022-11-06T00:37:37.814Z,96990.13
2022-11-06T00:40:06.850Z,96995.47
2022-11-06T00:42:34.705Z,97005.75
2022-11-06T00:45:02.678Z,97000.59
2022-11-06T00:47:30.593Z,97005.75
2022-11-06T00:49:59.889Z,97009.41
2022-11-06T00:52:30.380Z,97006.03
2022-11-06T00:54:58.325Z,97010.63
2022-11-06T00:57:26.234Z,97004.53
2022-11-06T00:59:54.224Z,97011.75
2022-11-06T01:02:22.226Z,97009.19
2022-11-06T01:04:50.198Z,97004.75
2022-11-06T01:07:19.553Z,97006.53
2022-11-06T01:09:47.633Z,97004.91
2022-11-06T01:12:15.710Z,97003.19
2022-11-06T01:14:44.904Z,97008.59
2022-11-06T01:17:13.393Z,97000.88
2022-11-06T01:19:41.624Z,96995.84
2022-11-06T01:22:09.657Z,97005.44
2022-11-06T01:24:39.073Z,97006.28
2022-11-06T01:29:55.218Z,97008.13
2022-11-06T01:32:23.110Z,97006.53
2022-11-06T01:34:52.240Z,97006.75
2022-11-06T01:37:20.288Z,97006.03
2022-11-06T01:39:50.905Z,97006.16
2022-11-06T01:42:21.598Z,97000.03
2022-11-06T01:45:24.478Z,97010.69
2022-11-06T01:47:52.897Z,97006.34
2022-11-06T01:50:21.342Z,97003.09
2022-11-06T01:52:51.396Z,96997.88
2022-11-06T01:55:25.175Z,96995.91
2022-11-06T01:57:54.005Z,96986.97
2022-11-06T02:00:22.199Z,96989.59
2022-11-06T02:02:51.337Z,96989.50
2022-11-06T02:05:19.721Z,96993.69
2022-11-06T02:07:48.032Z,96985.22
2022-11-06T02:10:16.537Z,96982.66
2022-11-06T02:12:54.488Z,96985.47
2022-11-06T02:15:33.696Z,96982.94
2022-11-06T02:18:19.334Z,96978.56
2022-11-06T02:21:07.104Z,96970.97
2022-11-06T02:23:51.817Z,96975.31
2022-11-06T02:26:44.590Z,96970.34
2022-11-06T02:32:28.804Z,96949.00
2022-11-06T02:34:59.943Z,96961.03
2022-11-06T02:37:31.491Z,96951.69
2022-11-06T02:40:02.868Z,96943.09
2022-11-06T02:42:34.950Z,96930.88
2022-11-06T02:45:04.375Z,96928.38
2022-11-06T02:47:34.448Z,96922.31
2022-11-06T02:50:06.495Z,96926.50
2022-11-06T02:52:40.469Z,96924.81
2022-11-06T02:55:12.413Z,96916.06
2022-11-06T02:57:46.683Z,96914.59
2022-11-06T03:00:16.912Z,96906.56
2022-11-06T03:02:51.339Z,96903.00
2022-11-06T03:05:26.195Z,96894.41
2022-11-06T03:08:01.439Z,96886.72
2022-11-06T03:10:35.254Z,96896.13
2022-11-06T03:13:13.207Z,96898.72
2022-11-06T03:15:47.431Z,96900.59
2022-11-06T03:18:20.002Z,96893.38
2022-11-06T03:20:56.762Z,96899.63
2022-11-06T03:23:34.100Z,96898.97
2022-11-06T03:26:12.326Z,96891.28
2022-11-06T03:28:49.333Z,96889.72
2022-11-06T03:31:20.713Z,96893.97
2022-11-06T03:33:54.019Z,96889.19
2022-11-06T03:36:26.360Z,96886.59
2022-11-06T03:38:59.535Z,96881.38
2022-11-06T03:41:33.237Z,96877.22
2022-11-06T03:44:05.755Z,96879.81
2022-11-06T03:46:38.214Z,96878.13
2022-11-06T03:49:10.194Z,96878.41
2022-11-06T03:51:42.783Z,96886.22
2022-11-06T03:54:15.285Z,96881.94
2022-11-06T03:56:48.915Z,96880.28
2022-11-06T03:59:23.423Z,96865.59
2022-11-06T04:01:54.886Z,96852.72
2022-11-06T04:04:26.947Z,96852.91
2022-11-06T04:06:58.656Z,96859.84
2022-11-06T04:09:49.180Z,96855.94
2022-11-06T04:12:39.238Z,96844.53
2022-11-06T04:15:13.538Z,96843.84
2022-11-06T04:17:42.429Z,96843.94
2022-11-06T04:20:34.033Z,96837.00
2022-11-06T04:23:09.697Z,96833.53
2022-11-06T04:26:09.415Z,96832.63
2022-11-06T04:28:44.634Z,96831.84
2022-11-06T04:31:24.140Z,96833.66
2022-11-06T04:33:58.986Z,96828.69
2022-11-06T04:36:38.638Z,96826.88
2022-11-06T04:39:18.360Z,96826.09
2022-11-06T04:41:53.666Z,96821.06
2022-11-06T04:44:28.058Z,96829.75
2022-11-06T04:47:00.298Z,96818.47
2022-11-06T04:49:32.107Z,96801.97
2022-11-06T04:52:03.475Z,96811.75
2022-11-06T04:54:32.672Z,96813.38
2022-11-06T04:57:01.485Z,96803.09
2022-11-06T04:59:30.741Z,96815.34
2022-11-06T05:02:00.091Z,96823.22
2022-11-06T05:04:28.355Z,96837.16
2022-11-06T05:06:56.298Z,96840.63
2022-11-06T05:09:24.335Z,96852.81
2022-11-06T05:11:52.414Z,96850.16
2022-11-06T05:14:20.514Z,96847.66
2022-11-06T05:16:48.536Z,96845.38
2022-11-06T05:19:17.826Z,96841.72
2022-11-06T05:22:02.998Z,96842.63
2022-11-06T05:24:31.507Z,96843.59
2022-11-06T05:26:59.961Z,96844.44
2022-11-06T05:29:28.241Z,96846.22
2022-11-06T05:31:56.273Z,96851.50
2022-11-06T05:34:25.585Z,96841.91
2022-11-06T05:36:53.591Z,96832.84
2022-11-06T05:39:21.602Z,96824.09
2022-11-06T05:41:49.907Z,96817.63
2022-11-06T05:44:18.015Z,96817.72
2022-11-06T05:46:49.271Z,96821.94
2022-11-06T05:49:18.187Z,96834.97
2022-11-06T05:51:47.953Z,96834.19
2022-11-06T05:54:16.581Z,96831.56
2022-11-06T05:56:44.472Z,96840.28
2022-11-06T05:59:14.126Z,96839.72
2022-11-06T06:01:42.362Z,96832.66
2022-11-06T06:04:10.588Z,96831.81
2022-11-06T06:06:39.327Z,96834.50
2022-11-06T06:09:08.649Z,96847.53
2022-11-06T06:11:36.750Z,96841.72
2022-11-06T06:14:04.664Z,96852.94
2022-11-06T06:16:32.762Z,96840.66
2022-11-06T06:19:00.719Z,96826.81
2022-11-06T06:21:28.768Z,96820.88
2022-11-06T06:23:56.682Z,96814.59
2022-11-06T06:26:26.267Z,96805.91
2022-11-06T06:28:54.195Z,96803.44
2022-11-06T06:31:22.524Z,96804.06
2022-11-06T06:33:50.526Z,96810.00
2022-11-06T06:36:18.422Z,96806.41
2022-11-06T06:38:46.377Z,96801.28
2022-11-06T06:41:14.338Z,96802.97
2022-11-06T06:43:43.698Z,96805.44
2022-11-06T06:46:11.851Z,96798.28
2022-11-06T06:48:39.772Z,96789.47
2022-11-06T06:51:08.829Z,96796.38
2022-11-06T06:53:37.293Z,96794.56
2022-11-06T06:56:05.919Z,96791.81
2022-11-06T06:58:34.122Z,96789.28
2022-11-06T07:01:05.277Z,96781.53
2022-11-06T07:03:33.642Z,96780.53
2022-11-06T07:06:01.860Z,96770.84
2022-11-06T07:08:30.478Z,96761.94
2022-11-06T07:11:01.412Z,96754.22
2022-11-06T07:13:35.407Z,96743.69
2022-11-06T07:16:07.221Z,96746.19
2022-11-06T07:18:36.356Z,96733.53
2022-11-06T07:21:06.650Z,96734.22
2022-11-06T07:23:35.207Z,96734.00
2022-11-06T07:26:03.224Z,96729.44
2022-11-06T07:28:32.045Z,96723.78
2022-11-06T07:31:01.060Z,96712.94
2022-11-06T07:33:30.766Z,96704.94
2022-11-06T07:36:04.034Z,96703.97
2022-11-06T07:38:33.962Z,96706.22
2022-11-06T07:41:04.272Z,96704.31
2022-11-06T07:43:33.587Z,96704.88
2022-11-06T07:46:02.431Z,96708.09
2022-11-06T07:48:32.493Z,96703.50
2022-11-06T07:51:03.451Z,96691.84
2022-11-06T07:53:31.554Z,96688.09
2022-11-06T07:56:00.055Z,96679.94
2022-11-06T07:58:28.426Z,96680.59
2022-11-06T08:00:58.431Z,96676.66
2022-11-06T08:03:30.053Z,96669.47
2022-11-06T08:06:00.116Z,96668.22
2022-11-06T08:08:29.031Z,96660.91
2022-11-06T08:10:56.952Z,96663.22
2022-11-06T08:13:26.049Z,96656.91
2022-11-06T08:15:54.074Z,96654.84
2022-11-06T08:18:22.066Z,96662.44
2022-11-06T08:20:50.197Z,96663.97
2022-11-06T08:23:19.522Z,96667.19
2022-11-06T08:25:47.523Z,96672.09
2022-11-06T08:28:15.756Z,96674.47
2022-11-06T08:30:44.039Z,96667.22
2022-11-06T08:33:12.233Z,96668.59
2022-11-06T08:35:40.368Z,96669.28
2022-11-06T08:38:08.326Z,96669.88
2022-11-06T08:40:39.441Z,96660.97
2022-11-06T08:43:09.364Z,96665.19
2022-11-06T08:45:38.757Z,96655.31
2022-11-06T08:48:07.872Z,96659.69
2022-11-06T08:50:39.534Z,96657.16
2022-11-06T08:53:08.533Z,96651.25
2022-11-06T08:55:40.719Z,96660.53
2022-11-06T08:58:09.995Z,96659.34
2022-11-06T09:00:38.649Z,96658.19
2022-11-06T09:03:08.795Z,96656.94
2022-11-06T09:05:36.819Z,96659.44
2022-11-06T09:08:05.104Z,96655.84
2022-11-06T09:10:33.182Z,96654.84
2022-11-06T09:13:02.438Z,96647.06
2022-11-06T09:15:30.697Z,96647.56
2022-11-06T09:17:58.707Z,96662.25
2022-11-06T09:20:27.548Z,96671.47
2022-11-06T09:22:55.846Z,96679.13
2022-11-06T09:25:23.758Z,96687.56
2022-11-06T09:27:58.930Z,96699.16
2022-11-06T09:30:31.014Z,96688.69
2022-11-06T09:33:00.863Z,96676.25
2022-11-06T09:35:30.569Z,96680.50
2022-11-06T09:38:02.406Z,96676.78
2022-11-06T09:40:34.067Z,96663.63
2022-11-06T09:43:11.616Z,96647.53
2022-11-06T09:45:42.220Z,96638.09
2022-11-06T09:48:18.503Z,96625.31
2022-11-06T09:50:53.026Z,96619.91
2022-11-06T09:53:28.158Z,96615.91
2022-11-06T09:55:58.344Z,96615.38
2022-11-06T09:58:31.342Z,96610.63
2022-11-06T10:01:07.125Z,96609.25
2022-11-06T10:03:42.644Z,96608.88
2022-11-06T10:06:10.549Z,96608.44
2022-11-06T10:08:38.882Z,96610.88
2022-11-06T10:11:12.131Z,96614.75
2022-11-06T10:13:56.827Z,96615.31
2022-11-06T10:16:35.983Z,96599.78
2022-11-06T10:19:12.382Z,96588.72
2022-11-06T10:21:48.501Z,96583.94
2022-11-06T10:24:23.785Z,96573.16
2022-11-06T10:26:55.697Z,96571.00
2022-11-06T10:29:41.708Z,96564.56
2022-11-06T10:32:28.622Z,96559.72
2022-11-06T10:36:26.362Z,96558.44
2022-11-06T10:38:57.328Z,96539.50
2022-11-06T10:41:31.672Z,96533.56
2022-11-06T10:44:03.460Z,96519.03
2022-11-06T10:46:37.276Z,96515.06
2022-11-06T10:49:16.832Z,96512.75
2022-11-06T10:52:12.904Z,96508.47
2022-11-06T10:54:58.244Z,96494.75
2022-11-06T10:57:37.650Z,96496.00
2022-11-06T11:00:06.547Z,96487.00
2022-11-06T11:02:38.028Z,96473.44
2022-11-06T11:05:15.982Z,96466.09
2022-11-06T11:07:46.991Z,96454.41
2022-11-06T11:10:30.199Z,96447.69
2022-11-06T11:13:04.074Z,96442.34
2022-11-06T11:15:46.029Z,96433.06
2022-11-06T11:18:19.213Z,96439.81
2022-11-06T11:20:49.927Z,96429.81
2022-11-06T11:23:20.718Z,96423.91
2022-11-06T11:25:50.546Z,96409.56
2022-11-06T11:28:30.184Z,96409.16
2022-11-06T11:31:07.811Z,96402.00
2022-11-06T11:33:36.937Z,96397.34
2022-11-06T11:36:08.700Z,96401.44
2022-11-06T11:38:38.454Z,96396.09
2022-11-06T11:41:08.917Z,96395.84
2022-11-06T11:43:37.003Z,96384.91
2022-11-06T11:46:21.297Z,96381.81
2022-11-06T11:48:51.619Z,96377.28
2022-11-06T11:51:44.544Z,96367.25
2022-11-06T11:54:20.368Z,96371.75
2022-11-06T11:57:04.542Z,96357.88
2022-11-06T11:59:42.830Z,96369.03
2022-11-06T12:02:20.861Z,96349.28
2022-11-06T12:04:55.742Z,96349.19
2022-11-06T12:07:28.961Z,96346.31
2022-11-06T12:09:57.445Z,96346.81
2022-11-06T12:12:29.206Z,96329.94
2022-11-06T12:15:08.342Z,96334.16
2022-11-06T12:17:40.567Z,96328.53
2022-11-06T12:20:13.570Z,96330.81
2022-11-06T12:22:47.215Z,96336.13
2022-11-06T12:25:20.447Z,96331.59
2022-11-06T12:27:52.482Z,96323.59
2022-11-06T12:30:20.949Z,96317.34
2022-11-06T12:32:59.371Z,96314.47
2022-11-06T12:35:30.567Z,96309.81
2022-11-06T12:38:26.660Z,96311.38
2022-11-06T12:40:59.106Z,96313.66
2022-11-06T12:43:34.839Z,96313.41
2022-11-06T12:46:21.724Z,96304.34
2022-11-06T12:49:28.850Z,96300.66
2022-11-06T12:52:17.848Z,96295.03
2022-11-06T12:55:01.167Z,96298.13
2022-11-06T12:57:36.349Z,96299.59
2022-11-06T13:00:10.962Z,96279.94
2022-11-06T13:02:59.737Z,96278.16
2022-11-06T13:05:34.293Z,96269.25
2022-11-06T13:08:16.981Z,96268.19
2022-11-06T13:10:57.187Z,96261.97
2022-11-06T13:13:59.309Z,96258.25
2022-11-06T13:16:37.576Z,96261.47
2022-11-06T13:19:11.748Z,96265.69
2022-11-06T13:22:08.975Z,96259.44
2022-11-06T13:24:42.508Z,96250.69
2022-11-06T13:27:23.230Z,96250.44
2022-11-06T13:29:52.553Z,96246.16
2022-11-06T13:32:24.439Z,96246.00
2022-11-06T13:34:56.123Z,96238.81
2022-11-06T13:37:38.142Z,96238.00
2022-11-06T13:40:17.418Z,96241.09
2022-11-06T13:42:51.936Z,96235.56
2022-11-06T13:45:21.419Z,96230.78
2022-11-06T13:48:01.986Z,96232.72
2022-11-06T13:50:35.970Z,96239.06
2022-11-06T13:53:11.437Z,96237.25
2022-11-06T13:55:57.025Z,96242.53
2022-11-06T13:58:50.421Z,96235.56
2022-11-06T14:01:33.322Z,96242.53
2022-11-06T14:04:21.104Z,96237.25
2022-11-06T14:06:53.866Z,96249.63
2022-11-06T14:09:25.525Z,96251.28
2022-11-06T14:11:55.699Z,96254.03
2022-11-06T14:14:31.356Z,96246.13
2022-11-06T14:17:14.154Z,96244.34
2022-11-06T14:19:49.152Z,96245.88
2022-11-06T14:22:26.166Z,96253.91
2022-11-06T14:25:00.989Z,96253.06
2022-11-06T14:28:05.443Z,96261.94
2022-11-06T14:31:11.463Z,96263.00
2022-11-06T14:34:01.894Z,96258.25
2022-11-06T14:36:37.294Z,96252.38
2022-11-06T14:39:11.872Z,96237.88
2022-11-06T14:41:55.628Z,96240.88
2022-11-06T14:44:40.350Z,96227.25
2022-11-06T14:47:22.518Z,96215.84
2022-11-06T14:49:54.321Z,96216.09
2022-11-06T14:52:24.619Z,96215.50
2022-11-06T14:55:03.369Z,96219.81
2022-11-06T14:57:42.739Z,96225.19
2022-11-06T15:00:15.334Z,96218.88
2022-11-06T15:02:45.567Z,96222.69
2022-11-06T15:05:21.017Z,96214.78
2022-11-06T15:08:05.023Z,96222.91
2022-11-06T15:10:51.924Z,96215.16
2022-11-06T15:13:33.454Z,96209.06
2022-11-06T15:16:12.835Z,96210.13
2022-11-06T15:18:45.285Z,96207.94
2022-11-06T15:21:22.025Z,96212.72
2022-11-06T15:24:03.827Z,96208.41
2022-11-06T15:26:37.816Z,96222.66
2022-11-06T15:29:14.850Z,96221.34
2022-11-06T15:31:46.108Z,96220.38
2022-11-06T15:34:21.482Z,96220.72
2022-11-06T15:36:54.024Z,96232.25
2022-11-06T15:39:33.998Z,96218.59
2022-11-06T15:42:02.175Z,96220.38
2022-11-06T15:44:30.270Z,96222.41
2022-11-06T15:47:00.237Z,96220.97
2022-11-06T15:49:29.543Z,96221.78
2022-11-06T15:51:59.163Z,96230.78
2022-11-06T15:54:38.579Z,96224.78
2022-11-06T15:57:16.058Z,96220.59
2022-11-06T15:59:44.062Z,96215.47
2022-11-06T16:02:17.883Z,96206.00
2022-11-06T16:04:48.253Z,96206.84
2022-11-06T16:07:18.357Z,96202.66
2022-11-06T16:09:47.532Z,96209.47
2022-11-06T16:12:18.329Z,96208.03
2022-11-06T16:14:46.815Z,96200.13
2022-11-06T16:17:19.631Z,96200.22
2022-11-06T16:19:50.090Z,96198.56
2022-11-06T16:22:20.360Z,96201.44
2022-11-06T16:24:52.842Z,96201.56
2022-11-06T16:27:23.479Z,96199.75
2022-11-06T16:29:55.273Z,96205.84
2022-11-06T16:32:25.351Z,96222.63
2022-11-06T16:34:55.299Z,96207.78
2022-11-06T16:37:40.093Z,96197.13
2022-11-06T16:40:50.400Z,96203.00
2022-11-06T16:43:20.251Z,96199.66
2022-11-06T16:45:56.351Z,96203.09
2022-11-06T16:48:34.636Z,96192.47
2022-11-06T16:51:07.213Z,96188.88
2022-11-06T16:53:52.072Z,96202.19
2022-11-06T16:56:25.490Z,96203.00
2022-11-06T16:58:59.298Z,96201.31
2022-11-06T17:01:27.500Z,96206.47
2022-11-06T17:04:00.235Z,96203.00
2022-11-06T17:06:32.707Z,96200.22
2022-11-06T17:09:09.382Z,96206.22
2022-11-06T17:11:38.761Z,96205.50
2022-11-06T17:14:19.518Z,96218.06
2022-11-06T17:16:50.740Z,96230.88
2022-11-06T17:19:19.255Z,96245.72
2022-11-06T17:21:49.705Z,96231.00
2022-11-06T17:27:07.031Z,96230.06
2022-11-06T17:29:36.294Z,96236.25
2022-11-06T17:32:04.704Z,96216.03
2022-11-06T17:34:32.676Z,96217.00
2022-11-06T17:37:02.276Z,96224.66
2022-11-06T17:39:30.239Z,96237.72
2022-11-06T17:41:58.280Z,96241.31
2022-11-06T17:44:26.413Z,96241.53
2022-11-06T17:46:54.517Z,96245.13
2022-11-06T17:49:22.497Z,96251.13
2022-11-06T17:52:00.121Z,96244.03
2022-11-06T17:54:32.280Z,96211.72
2022-11-06T17:57:02.052Z,96248.59
2022-11-06T17:59:30.259Z,96247.75
2022-11-06T18:01:58.485Z,96255.41
2022-11-06T18:04:28.277Z,96259.00
2022-11-06T18:06:56.664Z,96277.44
2022-11-06T18:09:25.598Z,96282.47
2022-11-06T18:11:55.981Z,96284.38
2022-11-06T18:14:26.020Z,96301.13
2022-11-06T18:16:54.965Z,96298.59
2022-11-06T18:19:25.298Z,96293.44
2022-11-06T18:21:54.484Z,96285.78
2022-11-06T18:24:22.600Z,96282.19
2022-11-06T18:26:50.656Z,96280.53
2022-11-06T18:29:20.481Z,96284.81
2022-11-06T18:31:48.664Z,96289.38
2022-11-06T18:34:20.961Z,96276.09
2022-11-06T18:36:50.276Z,96281.47
2022-11-06T18:39:19.397Z,96281.47
2022-11-06T18:41:47.742Z,96265.69
2022-11-06T18:44:16.773Z,96263.16
2022-11-06T18:46:46.682Z,96260.53
2022-11-06T18:49:15.115Z,96256.25
2022-11-06T18:51:43.604Z,96265.06
2022-11-06T18:54:13.615Z,96281.22
2022-11-06T18:56:42.331Z,96290.56
2022-11-06T18:59:15.657Z,96289.50
2022-11-06T19:01:43.935Z,96284.31
2022-11-06T19:04:13.919Z,96286.03
2022-11-06T19:06:42.524Z,96284.31
2022-11-06T19:09:11.607Z,96286.03
2022-11-06T19:11:39.797Z,96289.50
2022-11-06T19:14:07.975Z,96297.28
2022-11-06T19:16:36.132Z,96317.47
2022-11-06T19:19:06.390Z,96326.44
2022-11-06T19:21:36.887Z,96322.03
2022-11-06T19:24:06.651Z,96319.16
2022-11-06T19:26:36.595Z,96300.25
2022-11-06T19:29:07.618Z,96300.13
2022-11-06T19:31:37.406Z,96342.22
2022-11-06T19:34:07.637Z,96349.28
2022-11-06T19:36:37.549Z,96345.84
2022-11-06T19:39:06.819Z,96350.38
2022-11-06T19:41:35.312Z,96346.28
2022-11-06T19:44:03.357Z,96347.72
2022-11-06T19:46:35.960Z,96347.09
2022-11-06T19:49:05.697Z,96341.84
2022-11-06T19:51:35.242Z,96342.69
2022-11-06T19:54:10.322Z,96337.78
2022-11-06T19:57:28.942Z,96338.59
2022-11-06T19:59:58.290Z,96347.22
2022-11-06T20:02:28.846Z,96334.06
2022-11-06T20:05:00.758Z,96330.63
2022-11-06T20:07:28.996Z,96346.75
2022-11-06T20:10:04.410Z,96349.13
2022-11-06T20:12:33.157Z,96348.16
2022-11-06T20:15:01.685Z,96351.78
2022-11-06T20:17:29.712Z,96358.59
2022-11-06T20:19:58.393Z,96356.94
2022-11-06T20:22:27.456Z,96367.31
2022-11-06T20:24:55.752Z,96352.38
2022-11-06T20:27:25.564Z,96354.06
2022-11-06T20:29:53.913Z,96355.13
2022-11-06T20:32:22.810Z,96356.94
2022-11-06T20:34:51.527Z,96373.78
2022-11-06T20:37:19.561Z,96373.56
2022-11-06T20:39:48.277Z,96368.53
2022-11-06T20:42:16.410Z,96369.47
2022-11-06T20:44:45.874Z,96374.22
2022-11-06T20:47:13.999Z,96377.09
2022-11-06T20:49:43.132Z,96374.22
2022-11-06T20:52:14.032Z,96375.78
2022-11-06T20:54:47.098Z,96370.28
2022-11-06T20:57:16.181Z,96375.22
2022-11-06T20:59:45.612Z,96376.91
2022-11-06T21:02:13.850Z,96380.28
2022-11-06T21:04:42.262Z,96386.03
2022-11-06T21:07:10.280Z,96392.63
2022-11-06T21:09:38.430Z,96399.38
2022-11-06T21:12:07.206Z,96406.19
2022-11-06T21:14:35.301Z,96388.50
2022-11-06T21:17:04.725Z,96391.84
2022-11-06T21:19:33.215Z,96397.84
2022-11-06T21:22:01.235Z,96403.22
2022-11-06T21:24:29.171Z,96401.19
2022-11-06T21:26:57.338Z,96400.97
2022-11-06T21:29:26.016Z,96391.38
2022-11-06T21:31:54.546Z,96389.47
2022-11-06T21:34:23.938Z,96392.84
2022-11-06T21:36:52.133Z,96394.31
2022-11-06T21:39:21.310Z,96395.13
2022-11-06T21:41:49.314Z,96395.03
2022-11-06T21:44:19.030Z,96395.97
2022-11-06T21:46:47.215Z,96395.03
2022-11-06T21:49:15.473Z,96395.88
2022-11-06T21:51:44.777Z,96398.25
2022-11-06T21:54:30.876Z,96390.50
2022-11-06T21:56:58.814Z,96399.00
2022-11-06T21:59:28.892Z,96399.09
2022-11-06T22:01:57.686Z,96392.91
2022-11-06T22:04:26.011Z,96400.56
2022-11-06T22:06:55.549Z,96404.75
2022-11-06T22:09:25.685Z,96408.13
2022-11-06T22:11:54.099Z,96411.38
2022-11-06T22:14:22.123Z,96424.41
2022-11-06T22:16:50.455Z,96427.19
2022-11-06T22:19:18.632Z,96438.44
2022-11-06T22:21:46.608Z,96433.88
2022-11-06T22:24:16.611Z,96448.75
2022-11-06T22:26:44.693Z,96446.09
2022-11-06T22:29:15.281Z,96440.94
2022-11-06T22:31:43.435Z,96441.78
2022-11-06T22:34:11.610Z,96443.56
2022-11-06T22:36:40.070Z,96448.84
2022-11-06T22:39:10.301Z,96449.81
2022-11-06T22:41:40.121Z,96455.81
2022-11-06T22:44:09.004Z,96457.81
2022-11-06T22:46:37.259Z,96461.41
2022-11-06T22:49:05.931Z,96464.25
2022-11-06T22:51:34.698Z,96463.31
2022-11-06T22:54:03.209Z,96470.50
2022-11-06T22:56:32.116Z,96474.81
2022-11-06T22:59:04.180Z,96480.19
2022-11-06T23:01:40.325Z,96476.69
2022-11-06T23:04:14.908Z,96480.06
2022-11-06T23:06:43.972Z,96480.81
2022-11-06T23:09:12.306Z,96483.34
2022-11-06T23:11:40.191Z,96480.47
2022-11-06T23:14:09.700Z,96488.13
2022-11-06T23:16:55.564Z,96489.00
2022-11-06T23:19:24.860Z,96487.78
2022-11-06T23:22:13.570Z,96494.56
2022-11-06T23:24:41.550Z,96485.56
2022-11-06T23:27:10.836Z,96496.75
2022-11-06T23:29:40.455Z,96498.19
2022-11-06T23:32:08.751Z,96491.13
2022-11-06T23:34:36.893Z,96490.16
2022-11-06T23:37:04.879Z,96498.81
2022-11-06T23:39:32.740Z,96493.28
2022-11-06T23:42:00.713Z,96489.81
2022-11-06T23:44:45.909Z,96491.53
2022-11-06T23:47:15.469Z,96486.94
2022-11-06T23:49:43.386Z,96493.09
2022-11-06T23:52:11.318Z,96498.13
2022-11-06T23:54:39.241Z,96498.22
2022-11-06T23:57:08.595Z,96503.63
2022-11-06T23:59:36.633Z,96512.59
